createdAt,value
2018-11-28T00:00:17.196Z,2.97
2018-11-28T00:01:17.182Z,3.01
2018-11-28T00:02:17.167Z,2.95
2018-11-28T00:03:17.192Z,2.98
2018-11-28T00:04:17.170Z,2.97
2018-11-28T00:05:17.161Z,2.97
2018-11-28T00:06:17.143Z,2.98
2018-11-28T00:07:17.159Z,3.04
2018-11-28T00:08:17.334Z,3.10
2018-11-28T00:09:17.395Z,3.10
2018-11-28T00:10:17.328Z,3.11
2018-11-28T00:11:17.124Z,3.08
2018-11-28T00:12:17.120Z,3.00
2018-11-28T00:13:17.133Z,3.07
2018-11-28T00:14:17.097Z,3.05
2018-11-28T00:15:17.094Z,3.05
2018-11-28T00:16:17.085Z,3.13
2018-11-28T00:17:17.079Z,3.16
2018-11-28T00:18:17.091Z,3.05
2018-11-28T00:19:17.082Z,3.07
2018-11-28T00:20:17.067Z,3.07
2018-11-28T00:21:17.086Z,3.04
2018-11-28T00:22:17.051Z,3.18
2018-11-28T00:23:17.065Z,3.16
2018-11-28T00:24:17.044Z,3.10
2018-11-28T00:25:17.237Z,3.14
2018-11-28T00:26:17.029Z,3.19
2018-11-28T00:27:17.036Z,3.22
2018-11-28T00:28:17.229Z,3.21
2018-11-28T00:29:17.015Z,3.25
2018-11-28T00:30:18.080Z,3.14
2018-11-28T00:31:17.073Z,3.18
2018-11-28T00:32:17.010Z,3.18
2018-11-28T00:33:17.004Z,3.18
2018-11-28T00:34:16.994Z,3.10
2018-11-28T00:35:16.989Z,3.14
2018-11-28T00:36:16.987Z,3.11
2018-11-28T00:37:16.981Z,3.19
2018-11-28T00:38:16.971Z,3.11
2018-11-28T00:39:17.161Z,3.21
2018-11-28T00:40:16.951Z,3.21
2018-11-28T00:41:16.947Z,3.25
2018-11-28T00:42:16.949Z,3.21
2018-11-28T00:43:17.147Z,3.22
2018-11-28T00:44:16.938Z,3.21
2018-11-28T00:45:16.929Z,3.18
2018-11-28T00:46:16.918Z,3.21
2018-11-28T00:47:16.911Z,3.19
2018-11-28T00:48:16.906Z,3.29
2018-11-28T00:49:17.102Z,3.28
2018-11-28T00:50:16.919Z,3.34
2018-11-28T00:51:16.888Z,3.31
2018-11-28T00:52:16.881Z,3.34
2018-11-28T00:53:17.081Z,3.37
2018-11-28T00:54:17.072Z,3.36
2018-11-28T00:55:16.878Z,3.34
2018-11-28T00:56:16.858Z,3.37
2018-11-28T00:57:16.865Z,3.40
2018-11-28T00:58:16.851Z,3.44
2018-11-28T00:59:16.852Z,3.41
2018-11-28T01:00:16.838Z,3.37
2018-11-28T01:01:16.846Z,3.32
2018-11-28T01:02:17.027Z,3.37
2018-11-28T01:03:16.871Z,3.36
2018-11-28T01:04:16.829Z,3.36
2018-11-28T01:05:16.814Z,3.36
2018-11-28T01:06:16.816Z,3.36
2018-11-28T01:07:16.798Z,3.42
2018-11-28T01:08:16.794Z,3.40
2018-11-28T01:09:16.784Z,3.40
2018-11-28T01:10:16.782Z,3.40
2018-11-28T01:11:16.773Z,3.42
2018-11-28T01:12:16.768Z,3.37
2018-11-28T01:13:16.772Z,3.44
2018-11-28T01:14:16.762Z,3.50
2018-11-28T01:15:16.958Z,3.51
2018-11-28T01:16:16.769Z,3.60
2018-11-28T01:17:16.741Z,3.58
2018-11-28T01:18:16.746Z,3.50
2018-11-28T01:19:16.742Z,3.56
2018-11-28T01:20:16.728Z,3.48
2018-11-28T01:21:16.719Z,3.56
2018-11-28T01:22:16.731Z,3.51
2018-11-28T01:23:16.718Z,3.58
2018-11-28T01:24:16.702Z,3.58
2018-11-28T01:25:16.914Z,3.56
2018-11-28T01:26:16.702Z,3.56
2018-11-28T01:27:16.684Z,3.59
2018-11-28T01:28:16.885Z,3.58
2018-11-28T01:29:16.687Z,3.59
2018-11-28T01:30:16.669Z,3.50
2018-11-28T01:31:16.674Z,3.55
2018-11-28T01:32:16.667Z,3.51
2018-11-28T01:33:16.650Z,3.53
2018-11-28T01:34:16.672Z,3.55
2018-11-28T01:35:16.643Z,3.51
2018-11-28T01:36:16.651Z,3.58
2018-11-28T01:37:16.843Z,3.56
2018-11-28T01:38:16.629Z,3.56
2018-11-28T01:39:16.633Z,3.51
2018-11-28T01:40:16.626Z,3.48
2018-11-28T01:41:16.625Z,3.47
2018-11-28T01:42:16.618Z,3.45
2018-11-28T01:43:16.608Z,3.41
2018-11-28T01:44:16.627Z,3.47
2018-11-28T01:45:16.596Z,3.45
2018-11-28T01:46:16.781Z,3.50
2018-11-28T01:47:16.573Z,3.50
2018-11-28T01:48:16.566Z,3.44
2018-11-28T01:49:16.781Z,3.48
2018-11-28T01:50:16.556Z,3.48
2018-11-28T01:51:16.552Z,3.55
2018-11-28T01:52:16.545Z,3.50
2018-11-28T01:53:16.542Z,3.55
2018-11-28T01:54:16.535Z,3.58
2018-11-28T01:55:16.539Z,3.53
2018-11-28T01:56:16.524Z,3.51
2018-11-28T01:57:16.520Z,3.56
2018-11-28T01:58:16.715Z,3.56
2018-11-28T01:59:16.717Z,3.59
2018-11-28T02:00:16.710Z,3.59
2018-11-28T02:01:16.494Z,3.56
2018-11-28T02:02:16.702Z,3.53
2018-11-28T02:03:16.481Z,3.58
2018-11-28T02:04:16.478Z,3.56
2018-11-28T02:05:16.473Z,3.55
2018-11-28T02:06:16.467Z,3.56
2018-11-28T02:07:16.665Z,3.56
2018-11-28T02:08:16.459Z,3.60
2018-11-28T02:09:16.459Z,3.58
2018-11-28T02:10:16.456Z,3.56
2018-11-28T02:11:16.440Z,3.56
2018-11-28T02:12:16.445Z,3.55
2018-11-28T02:13:16.429Z,3.70
2018-11-28T02:14:16.627Z,3.70
2018-11-28T02:15:16.415Z,3.68
2018-11-28T02:16:16.412Z,3.62
2018-11-28T02:17:16.413Z,3.60
2018-11-28T02:18:16.402Z,3.60
2018-11-28T02:19:16.413Z,3.69
2018-11-28T02:20:16.402Z,3.73
2018-11-28T02:21:16.585Z,3.59
2018-11-28T02:22:16.385Z,3.59
2018-11-28T02:23:16.373Z,3.73
2018-11-28T02:24:16.376Z,3.69
2018-11-28T02:25:16.360Z,3.66
2018-11-28T02:26:16.556Z,3.73
2018-11-28T02:27:16.360Z,3.73
2018-11-28T02:28:16.353Z,3.66
2018-11-28T02:29:16.349Z,3.60
2018-11-28T02:30:16.354Z,3.70
2018-11-28T02:31:16.324Z,3.74
2018-11-28T02:32:16.335Z,3.59
2018-11-28T02:33:16.520Z,3.60
2018-11-28T02:34:16.524Z,3.59
2018-11-28T02:35:16.519Z,3.56
2018-11-28T02:36:16.311Z,3.58
2018-11-28T02:37:16.302Z,3.58
2018-11-28T02:38:16.298Z,3.73
2018-11-28T02:39:16.280Z,3.69
2018-11-28T02:40:16.480Z,3.66
2018-11-28T02:41:16.271Z,3.68
2018-11-28T02:42:16.275Z,3.70
2018-11-28T02:43:16.261Z,3.70
2018-11-28T02:44:16.260Z,3.65
2018-11-28T02:45:16.247Z,3.70
2018-11-28T02:46:16.243Z,3.65
2018-11-28T02:47:16.235Z,3.66
2018-11-28T02:48:16.230Z,3.65
2018-11-28T02:49:16.228Z,3.77
2018-11-28T02:50:16.231Z,3.70
2018-11-28T02:51:16.231Z,3.70
2018-11-28T02:52:16.430Z,3.76
2018-11-28T02:53:16.214Z,3.63
2018-11-28T02:54:16.197Z,3.66
2018-11-28T02:55:16.215Z,3.73
2018-11-28T02:56:16.187Z,3.69
2018-11-28T02:57:16.182Z,3.69
2018-11-28T02:58:16.379Z,3.63
2018-11-28T02:59:16.370Z,3.68
2018-11-28T03:00:16.167Z,3.69
2018-11-28T03:01:16.157Z,3.60
2018-11-28T03:02:16.165Z,3.76
2018-11-28T03:03:16.351Z,3.68
2018-11-28T03:04:16.151Z,3.80
2018-11-28T03:05:16.137Z,3.68
2018-11-28T03:06:16.140Z,3.81
2018-11-28T03:07:16.124Z,3.69
2018-11-28T03:08:16.121Z,3.69
2018-11-28T03:09:16.111Z,3.62
2018-11-28T03:10:16.106Z,3.69
2018-11-28T03:11:16.110Z,3.66
2018-11-28T03:12:16.095Z,3.58
2018-11-28T03:13:16.090Z,3.68
2018-11-28T03:14:16.084Z,3.68
2018-11-28T03:15:16.078Z,3.65
2018-11-28T03:16:16.073Z,3.77
2018-11-28T03:17:16.080Z,3.69
2018-11-28T03:18:16.062Z,3.70
2018-11-28T03:19:16.258Z,3.68
2018-11-28T03:20:16.053Z,3.74
2018-11-28T03:21:16.042Z,3.78
2018-11-28T03:22:16.051Z,3.66
2018-11-28T03:23:16.046Z,3.74
2018-11-28T03:24:16.029Z,3.74
2018-11-28T03:25:16.062Z,3.70
2018-11-28T03:26:16.031Z,3.73
2018-11-28T03:27:16.020Z,3.69
2018-11-28T03:28:16.006Z,3.70
2018-11-28T03:29:16.009Z,3.73
2018-11-28T03:30:16.021Z,3.70
2018-11-28T03:31:16.211Z,3.78
2018-11-28T03:32:15.990Z,3.74
2018-11-28T03:33:15.982Z,3.69
2018-11-28T03:34:15.979Z,3.70
2018-11-28T03:35:15.978Z,3.77
2018-11-28T03:36:15.962Z,3.70
2018-11-28T03:37:15.965Z,3.73
2018-11-28T03:38:15.949Z,3.77
2018-11-28T03:39:15.941Z,3.77
2018-11-28T03:40:15.952Z,3.80
2018-11-28T03:41:15.931Z,3.76
2018-11-28T03:42:15.926Z,3.76
2018-11-28T03:43:15.921Z,3.70
2018-11-28T03:44:15.924Z,3.63
2018-11-28T03:45:15.911Z,3.78
2018-11-28T03:46:15.917Z,3.76
2018-11-28T03:47:15.913Z,3.66
2018-11-28T03:48:15.895Z,3.66
2018-11-28T03:49:15.890Z,3.69
2018-11-28T03:50:15.881Z,3.66
2018-11-28T03:51:15.874Z,3.76
2018-11-28T03:52:15.879Z,3.73
2018-11-28T03:53:16.073Z,3.69
2018-11-28T03:54:15.862Z,3.78
2018-11-28T03:55:15.880Z,3.76
2018-11-28T03:56:15.851Z,3.77
2018-11-28T03:57:15.858Z,3.74
2018-11-28T03:58:16.042Z,3.68
2018-11-28T03:59:15.833Z,3.74
2018-11-28T04:00:15.843Z,3.73
2018-11-28T04:01:16.039Z,3.70
2018-11-28T04:02:15.829Z,3.73
2018-11-28T04:03:16.024Z,3.74
2018-11-28T04:04:15.807Z,3.77
2018-11-28T04:05:15.804Z,3.76
2018-11-28T04:06:15.806Z,3.81
2018-11-28T04:07:15.795Z,3.86
2018-11-28T04:08:15.794Z,3.81
2018-11-28T04:09:15.777Z,3.80
2018-11-28T04:10:15.788Z,3.80
2018-11-28T04:11:15.783Z,3.80
2018-11-28T04:12:15.765Z,3.83
2018-11-28T04:13:15.768Z,3.81
2018-11-28T04:14:15.752Z,3.78
2018-11-28T04:15:15.764Z,3.84
2018-11-28T04:16:15.747Z,3.80
2018-11-28T04:17:15.737Z,3.86
2018-11-28T04:18:15.728Z,3.78
2018-11-28T04:19:15.733Z,3.88
2018-11-28T04:20:15.717Z,3.91
2018-11-28T04:21:15.722Z,3.84
2018-11-28T04:22:15.719Z,3.84
2018-11-28T04:23:15.719Z,3.84
2018-11-28T04:24:15.700Z,3.78
2018-11-28T04:25:15.690Z,3.86
2018-11-28T04:26:15.684Z,3.83
2018-11-28T04:27:15.676Z,3.87
2018-11-28T04:28:15.683Z,3.95
2018-11-28T04:29:15.675Z,3.96
2018-11-28T04:30:15.661Z,3.95
2018-11-28T04:31:15.655Z,3.95
2018-11-28T04:32:15.660Z,4.06
2018-11-28T04:33:15.658Z,4.02
2018-11-28T04:34:15.654Z,4.02
2018-11-28T04:35:15.655Z,3.99
2018-11-28T04:36:15.653Z,3.99
2018-11-28T04:37:15.644Z,3.95
2018-11-28T04:38:15.633Z,3.95
2018-11-28T04:39:15.624Z,3.99
2018-11-28T04:40:15.616Z,3.94
2018-11-28T04:41:15.603Z,4.04
2018-11-28T04:42:15.594Z,4.04
2018-11-28T04:43:15.588Z,4.05
2018-11-28T04:44:15.607Z,4.12
2018-11-28T04:45:15.590Z,4.08
2018-11-28T04:46:15.597Z,3.95
2018-11-28T04:47:15.571Z,4.01
2018-11-28T04:48:15.614Z,4.06
2018-11-28T04:49:15.560Z,4.05
2018-11-28T04:50:15.558Z,4.08
2018-11-28T04:51:15.544Z,4.10
2018-11-28T04:52:15.534Z,4.02
2018-11-28T04:53:15.542Z,4.12
2018-11-28T04:54:15.542Z,4.10
2018-11-28T04:55:15.532Z,4.08
2018-11-28T04:56:15.528Z,4.13
2018-11-28T04:57:15.521Z,4.16
2018-11-28T04:58:15.714Z,4.10
2018-11-28T04:59:15.509Z,4.10
2018-11-28T05:00:15.537Z,4.10
2018-11-28T05:01:15.485Z,4.08
2018-11-28T05:02:15.485Z,4.10
2018-11-28T05:03:15.502Z,4.13
2018-11-28T05:04:15.480Z,4.08
2018-11-28T05:05:15.465Z,4.12
2018-11-28T05:06:15.463Z,4.12
2018-11-28T05:07:15.494Z,4.13
2018-11-28T05:08:15.469Z,4.13
2018-11-28T05:09:15.447Z,4.13
2018-11-28T05:10:15.442Z,4.12
2018-11-28T05:11:15.434Z,4.12
2018-11-28T05:12:15.428Z,4.06
2018-11-28T05:13:15.420Z,4.20
2018-11-28T05:14:15.414Z,4.14
2018-11-28T05:15:15.410Z,4.22
2018-11-28T05:16:15.401Z,4.24
2018-11-28T05:17:15.403Z,4.22
2018-11-28T05:18:15.391Z,4.22
2018-11-28T05:19:15.382Z,4.22
2018-11-28T05:20:15.381Z,4.24
2018-11-28T05:21:15.376Z,4.23
2018-11-28T05:22:15.369Z,4.23
2018-11-28T05:23:15.361Z,4.23
2018-11-28T05:24:15.362Z,4.26
2018-11-28T05:25:15.555Z,4.24
2018-11-28T05:26:15.360Z,4.22
2018-11-28T05:27:15.338Z,4.30
2018-11-28T05:28:15.337Z,4.24
2018-11-28T05:29:15.332Z,4.32
2018-11-28T05:30:15.333Z,4.26
2018-11-28T05:31:15.319Z,4.20
2018-11-28T05:32:15.316Z,4.16
2018-11-28T05:33:15.311Z,4.23
2018-11-28T05:34:15.314Z,4.19
2018-11-28T05:35:15.306Z,4.17
2018-11-28T05:36:15.290Z,4.19
2018-11-28T05:37:15.296Z,4.22
2018-11-28T05:38:15.280Z,4.28
2018-11-28T05:39:15.272Z,4.31
2018-11-28T05:40:15.267Z,4.31
2018-11-28T05:41:15.263Z,4.31
2018-11-28T05:42:15.256Z,4.32
2018-11-28T05:43:15.261Z,4.28
2018-11-28T05:44:15.249Z,4.23
2018-11-28T05:45:15.246Z,4.40
2018-11-28T05:46:15.232Z,4.34
2018-11-28T05:47:15.237Z,4.35
2018-11-28T05:48:15.275Z,4.40
2018-11-28T05:49:48.637Z,4.31
2018-11-28T05:50:15.215Z,4.37
2018-11-28T05:51:15.205Z,4.40
2018-11-28T05:52:15.200Z,4.41
2018-11-28T05:53:15.196Z,4.37
2018-11-28T05:54:15.199Z,4.40
2018-11-28T05:55:15.185Z,4.40
2018-11-28T05:56:15.180Z,4.42
2018-11-28T05:57:15.174Z,4.42
2018-11-28T05:58:15.165Z,4.38
2018-11-28T05:59:15.163Z,4.42
2018-11-28T06:00:15.154Z,4.37
2018-11-28T06:02:59.110Z,4.40
2018-11-28T06:03:58.881Z,4.41
2018-11-28T06:04:58.879Z,4.38
2018-11-28T06:05:58.872Z,4.38
2018-11-28T06:06:58.872Z,4.41
2018-11-28T06:07:58.861Z,4.40
2018-11-28T06:08:58.850Z,4.48
2018-11-28T06:09:58.844Z,4.45
2018-11-28T06:10:58.838Z,4.42
2018-11-28T06:11:58.834Z,4.45
2018-11-28T06:12:58.827Z,4.50
2018-11-28T06:13:58.830Z,4.44
2018-11-28T06:14:58.817Z,4.49
2018-11-28T06:15:58.836Z,4.45
2018-11-28T06:16:58.806Z,4.48
2018-11-28T06:17:58.800Z,4.42
2018-11-28T06:18:58.806Z,4.48
2018-11-28T06:19:58.864Z,4.48
2018-11-28T06:20:58.789Z,4.48
2018-11-28T06:21:58.780Z,4.52
2018-11-28T06:22:58.772Z,4.50
2018-11-28T06:23:58.971Z,4.49
2018-11-28T06:24:58.772Z,4.53
2018-11-28T06:25:58.765Z,4.52
2018-11-28T06:26:58.751Z,4.48
2018-11-28T06:27:58.742Z,4.50
2018-11-28T06:28:58.739Z,4.48
2018-11-28T06:29:58.939Z,4.52
2018-11-28T06:30:58.727Z,4.41
2018-11-28T06:31:58.732Z,4.48
2018-11-28T06:32:58.716Z,4.52
2018-11-28T06:33:58.712Z,4.53
2018-11-28T06:34:58.715Z,4.52
2018-11-28T06:35:58.714Z,4.52
2018-11-28T06:36:58.697Z,4.45
2018-11-28T06:37:58.706Z,4.53
2018-11-28T06:38:58.699Z,4.52
2018-11-28T06:39:58.681Z,4.49
2018-11-28T06:40:58.674Z,4.56
2018-11-28T06:41:58.666Z,4.48
2018-11-28T06:42:58.676Z,4.58
2018-11-28T06:43:58.684Z,4.59
2018-11-28T06:44:58.661Z,4.59
2018-11-28T06:45:58.658Z,4.60
2018-11-28T06:46:58.840Z,4.49
2018-11-28T06:47:58.647Z,4.49
2018-11-28T06:48:58.645Z,4.56
2018-11-28T06:49:58.637Z,4.50
2018-11-28T06:50:58.619Z,4.53
2018-11-28T06:51:58.632Z,4.53
2018-11-28T06:52:58.607Z,4.53
2018-11-28T06:53:58.801Z,4.52
2018-11-28T06:54:58.596Z,4.49
2018-11-28T06:55:58.590Z,4.48
2018-11-28T06:56:58.586Z,4.44
2018-11-28T06:57:58.581Z,4.44
2018-11-28T06:58:58.578Z,4.42
2018-11-28T06:59:58.569Z,4.45
2018-11-28T07:00:58.580Z,4.48
2018-11-28T07:01:58.571Z,4.45
2018-11-28T07:02:58.577Z,4.41
2018-11-28T07:03:58.572Z,4.45
2018-11-28T07:04:58.542Z,4.42
2018-11-28T07:05:58.534Z,4.49
2018-11-28T07:06:58.535Z,4.41
2018-11-28T07:07:58.522Z,4.48
2018-11-28T07:08:58.542Z,4.38
2018-11-28T07:09:58.528Z,4.44
2018-11-28T07:10:58.534Z,4.48
2018-11-28T07:11:58.500Z,4.42
2018-11-28T07:12:58.497Z,4.38
2018-11-28T07:13:58.511Z,4.40
2018-11-28T07:14:58.485Z,4.48
2018-11-28T07:15:58.495Z,4.44
2018-11-28T07:16:58.476Z,4.37
2018-11-28T07:17:58.503Z,4.45
2018-11-28T07:18:58.476Z,4.50
2018-11-28T07:19:58.463Z,4.59
2018-11-28T07:20:58.667Z,4.48
2018-11-28T07:21:58.469Z,4.53
2018-11-28T07:22:58.462Z,4.55
2018-11-28T07:23:58.437Z,4.56
2018-11-28T07:24:58.433Z,4.49
2018-11-28T07:25:58.428Z,4.48
2018-11-28T07:26:58.420Z,4.45
2018-11-28T07:27:58.430Z,4.58
2018-11-28T07:28:58.434Z,4.55
2018-11-28T07:29:58.416Z,4.52
2018-11-28T07:30:58.409Z,4.58
2018-11-28T07:31:58.429Z,4.50
2018-11-28T07:32:58.423Z,4.62
2018-11-28T07:33:58.382Z,4.60
2018-11-28T07:34:58.393Z,4.62
2018-11-28T07:35:58.377Z,4.62
2018-11-28T07:36:58.387Z,4.60
2018-11-28T07:37:58.369Z,4.62
2018-11-28T07:38:58.370Z,4.59
2018-11-28T07:39:58.363Z,4.56
2018-11-28T07:40:58.359Z,4.59
2018-11-28T07:41:58.355Z,4.62
2018-11-28T07:42:58.341Z,4.70
2018-11-28T07:43:58.550Z,4.56
2018-11-28T07:44:58.322Z,4.71
2018-11-28T07:45:58.518Z,4.75
2018-11-28T07:46:58.514Z,4.77
2018-11-28T07:47:58.308Z,4.71
2018-11-28T07:48:58.301Z,4.77
2018-11-28T07:49:58.297Z,4.74
2018-11-28T07:50:58.294Z,4.80
2018-11-28T07:51:58.499Z,4.73
2018-11-28T07:52:58.289Z,4.73
2018-11-28T07:53:58.295Z,4.86
2018-11-28T07:54:58.272Z,4.86
2018-11-28T07:55:58.265Z,4.94
2018-11-28T07:56:58.257Z,4.82
2018-11-28T07:57:58.278Z,4.90
2018-11-28T07:58:58.260Z,4.89
2018-11-28T07:59:58.241Z,4.92
2018-11-28T08:00:58.238Z,4.93
2018-11-28T08:01:58.251Z,4.89
2018-11-28T08:02:58.244Z,4.90
2018-11-28T08:03:58.220Z,4.94
2018-11-28T08:04:58.227Z,5.02
2018-11-28T08:05:58.212Z,4.97
2018-11-28T08:06:58.215Z,5.00
2018-11-28T08:07:58.199Z,5.00
2018-11-28T08:08:58.206Z,5.02
2018-11-28T08:09:58.191Z,4.99
2018-11-28T08:10:58.187Z,5.02
2018-11-28T08:11:58.177Z,5.05
2018-11-28T08:12:58.184Z,5.08
2018-11-28T08:13:58.170Z,5.08
2018-11-28T08:14:58.166Z,5.08
2018-11-28T08:15:58.158Z,5.08
2018-11-28T08:16:58.168Z,5.14
2018-11-28T08:17:58.158Z,5.15
2018-11-28T08:18:58.153Z,5.23
2018-11-28T08:19:58.142Z,5.18
2018-11-28T08:20:58.134Z,5.26
2018-11-28T08:21:58.125Z,5.21
2018-11-28T08:22:58.121Z,5.26
2018-11-28T08:23:58.115Z,5.28
2018-11-28T08:24:58.113Z,5.28
2018-11-28T08:25:58.121Z,5.30
2018-11-28T08:26:58.101Z,5.30
2018-11-28T08:27:58.239Z,5.35
2018-11-28T08:28:58.106Z,5.35
2018-11-28T08:29:58.086Z,5.28
2018-11-28T08:30:58.077Z,5.36
2018-11-28T08:31:58.072Z,5.32
2018-11-28T08:32:58.085Z,5.29
2018-11-28T08:33:58.086Z,5.38
2018-11-28T08:34:58.082Z,5.44
2018-11-28T08:35:58.055Z,5.43
2018-11-28T08:36:58.047Z,5.51
2018-11-28T08:37:58.056Z,5.47
2018-11-28T08:38:58.036Z,5.46
2018-11-28T08:39:58.031Z,5.43
2018-11-28T08:40:58.032Z,5.48
2018-11-28T08:41:58.036Z,5.46
2018-11-28T08:42:58.034Z,5.48
2018-11-28T08:43:58.024Z,5.59
2018-11-28T08:44:58.006Z,5.44
2018-11-28T08:45:58.035Z,5.62
2018-11-28T08:46:58.006Z,5.54
2018-11-28T08:47:58.016Z,5.53
2018-11-28T08:48:57.988Z,5.56
2018-11-28T08:49:58.008Z,5.61
2018-11-28T08:50:57.986Z,5.57
2018-11-28T08:51:57.972Z,5.64
2018-11-28T08:52:57.998Z,5.64
2018-11-28T08:53:58.164Z,5.62
2018-11-28T08:54:57.955Z,5.62
2018-11-28T08:55:57.989Z,5.64
2018-11-28T08:56:57.947Z,5.65
2018-11-28T08:57:57.952Z,5.66
2018-11-28T08:58:57.933Z,5.71
2018-11-28T08:59:57.959Z,5.65
2018-11-28T09:00:57.927Z,5.65
2018-11-28T09:01:57.932Z,5.69
2018-11-28T09:02:57.942Z,5.72
2018-11-28T09:03:57.919Z,5.69
2018-11-28T09:04:57.926Z,5.64
2018-11-28T09:05:57.923Z,5.68
2018-11-28T09:06:57.896Z,5.69
2018-11-28T09:07:57.889Z,5.73
2018-11-28T09:08:57.894Z,5.69
2018-11-28T09:09:57.882Z,5.66
2018-11-28T09:10:57.875Z,5.71
2018-11-28T09:11:57.873Z,5.71
2018-11-28T09:13:03.539Z,5.71
2018-11-28T09:13:57.860Z,5.76
2018-11-28T09:14:57.860Z,5.75
2018-11-28T09:15:57.850Z,5.68
2018-11-28T09:16:57.846Z,5.72
2018-11-28T09:17:57.839Z,5.75
2018-11-28T09:18:57.844Z,5.73
2018-11-28T09:19:58.030Z,5.71
2018-11-28T09:20:57.826Z,5.80
2018-11-28T09:21:57.831Z,5.76
2018-11-28T09:22:58.024Z,5.79
2018-11-28T09:23:57.809Z,5.69
2018-11-28T09:24:57.814Z,5.71
2018-11-28T09:25:57.821Z,5.76
2018-11-28T09:26:57.814Z,5.79
2018-11-28T09:27:57.801Z,5.83
2018-11-28T09:28:57.785Z,5.83
2018-11-28T09:29:57.775Z,5.79
2018-11-28T09:30:57.774Z,5.79
2018-11-28T09:31:57.782Z,5.87
2018-11-28T09:32:57.790Z,5.89
2018-11-28T09:33:57.766Z,5.84
2018-11-28T09:34:57.768Z,5.89
2018-11-28T09:35:57.747Z,5.90
2018-11-28T09:36:57.740Z,5.86
2018-11-28T09:37:57.943Z,5.82
2018-11-28T09:38:57.741Z,5.84
2018-11-28T09:39:57.726Z,5.97
2018-11-28T09:40:57.731Z,5.91
2018-11-28T09:41:57.737Z,5.89
2018-11-28T09:42:57.711Z,5.97
2018-11-28T09:43:57.716Z,5.99
2018-11-28T09:44:57.712Z,5.97
2018-11-28T09:45:57.694Z,6.02
2018-11-28T09:46:57.701Z,6.01
2018-11-28T09:47:57.685Z,5.99
2018-11-28T09:48:57.688Z,5.94
2018-11-28T09:49:57.674Z,6.04
2018-11-28T09:50:57.671Z,5.98
2018-11-28T09:51:57.869Z,6.02
2018-11-28T09:52:57.669Z,5.99
2018-11-28T09:53:57.655Z,6.05
2018-11-28T09:54:57.653Z,6.05
2018-11-28T09:55:57.668Z,6.09
2018-11-28T09:56:57.669Z,6.16
2018-11-28T09:57:57.650Z,6.09
2018-11-28T09:58:57.630Z,6.16
2018-11-28T09:59:57.637Z,6.20
2018-11-28T10:00:57.633Z,6.20
2018-11-28T10:01:57.630Z,6.19
2018-11-28T10:02:57.613Z,6.12
2018-11-28T10:03:57.608Z,6.16
2018-11-28T10:05:02.574Z,6.20
2018-11-28T10:05:57.597Z,6.22
2018-11-28T10:06:57.593Z,6.22
2018-11-28T10:07:57.588Z,6.26
2018-11-28T10:08:57.582Z,6.16
2018-11-28T10:09:57.579Z,6.31
2018-11-28T10:10:57.571Z,6.26
2018-11-28T10:11:57.565Z,6.26
2018-11-28T10:12:57.589Z,6.27
2018-11-28T10:13:57.570Z,6.27
2018-11-28T10:14:57.555Z,6.27
2018-11-28T10:15:57.562Z,6.28
2018-11-28T10:16:57.919Z,6.31
2018-11-28T10:17:57.538Z,6.28
2018-11-28T10:18:57.553Z,6.30
2018-11-28T10:19:57.547Z,6.36
2018-11-28T10:20:57.522Z,6.31
2018-11-28T10:21:57.732Z,6.33
2018-11-28T10:22:57.513Z,6.27
2018-11-28T10:23:57.514Z,6.22
2018-11-28T10:24:57.501Z,6.30
2018-11-28T10:25:57.500Z,6.28
2018-11-28T10:26:57.505Z,6.27
2018-11-28T10:27:57.703Z,6.26
2018-11-28T10:28:57.485Z,6.26
2018-11-28T10:29:57.682Z,6.24
2018-11-28T10:30:57.473Z,6.30
2018-11-28T10:31:57.480Z,6.27
2018-11-28T10:32:57.498Z,6.27
2018-11-28T10:33:57.461Z,6.24
2018-11-28T10:34:57.469Z,6.28
2018-11-28T10:35:57.452Z,6.26
2018-11-28T10:36:57.489Z,6.35
2018-11-28T10:37:57.451Z,6.31
2018-11-28T10:38:57.441Z,6.41
2018-11-28T10:39:57.445Z,6.39
2018-11-28T10:40:57.439Z,6.39
2018-11-28T10:41:57.431Z,6.39
2018-11-28T10:42:57.439Z,6.44
2018-11-28T10:43:57.423Z,6.51
2018-11-28T10:44:57.419Z,6.46
2018-11-28T10:45:57.418Z,6.44
2018-11-28T10:46:57.401Z,6.44
2018-11-28T10:47:57.419Z,6.49
2018-11-28T10:48:57.388Z,6.45
2018-11-28T10:49:57.383Z,6.41
2018-11-28T10:50:57.395Z,6.45
2018-11-28T10:51:57.376Z,6.46
2018-11-28T10:52:57.382Z,6.46
2018-11-28T10:53:57.419Z,6.46
2018-11-28T10:54:57.361Z,6.49
2018-11-28T10:55:57.367Z,6.46
2018-11-28T10:56:57.370Z,6.42
2018-11-28T10:57:57.363Z,6.51
2018-11-28T10:58:57.340Z,6.51
2018-11-28T10:59:57.340Z,6.49
2018-11-28T11:00:57.381Z,6.51
2018-11-28T11:01:57.339Z,6.60
2018-11-28T11:02:57.320Z,6.60
2018-11-28T11:03:57.328Z,6.64
2018-11-28T11:04:57.334Z,6.56
2018-11-28T11:05:57.319Z,6.56
2018-11-28T11:06:57.312Z,6.62
2018-11-28T11:07:57.308Z,6.62
2018-11-28T11:08:57.329Z,6.70
2018-11-28T11:09:57.287Z,6.63
2018-11-28T11:10:57.310Z,6.67
2018-11-28T11:11:57.279Z,6.72
2018-11-28T11:12:57.292Z,6.77
2018-11-28T11:13:57.270Z,6.74
2018-11-28T11:14:57.278Z,6.78
2018-11-28T11:15:57.279Z,6.75
2018-11-28T11:16:57.256Z,6.78
2018-11-28T11:18:02.134Z,6.79
2018-11-28T11:18:57.245Z,6.78
2018-11-28T11:19:57.241Z,6.79
2018-11-28T11:20:57.239Z,6.79
2018-11-28T11:21:57.235Z,6.75
2018-11-28T11:22:57.227Z,6.85
2018-11-28T11:23:57.238Z,6.84
2018-11-28T11:24:57.232Z,6.82
2018-11-28T11:25:57.219Z,6.85
2018-11-28T11:26:57.221Z,6.85
2018-11-28T11:27:57.215Z,6.82
2018-11-28T11:28:57.216Z,6.81
2018-11-28T11:29:57.223Z,6.84
2018-11-28T11:30:57.205Z,6.92
2018-11-28T11:31:57.201Z,6.99
2018-11-28T11:32:57.183Z,6.88
2018-11-28T11:33:57.212Z,6.96
2018-11-28T11:34:57.171Z,6.93
2018-11-28T11:35:57.171Z,6.93
2018-11-28T11:36:57.176Z,7.02
2018-11-28T11:37:57.158Z,6.93
2018-11-28T11:38:57.168Z,6.92
2018-11-28T11:39:57.372Z,6.99
2018-11-28T11:40:57.159Z,7.05
2018-11-28T11:41:57.154Z,6.97
2018-11-28T11:42:57.134Z,7.05
2018-11-28T11:43:57.141Z,7.02
2018-11-28T11:44:57.139Z,7.00
2018-11-28T11:45:57.120Z,7.05
2018-11-28T11:46:57.140Z,7.06
2018-11-28T11:47:57.112Z,7.10
2018-11-28T11:48:57.117Z,7.07
2018-11-28T11:49:57.128Z,7.07
2018-11-28T11:50:57.114Z,7.07
2018-11-28T11:51:57.104Z,7.05
2018-11-28T11:52:57.098Z,7.05
2018-11-28T11:53:57.095Z,7.10
2018-11-28T11:54:57.078Z,7.05
2018-11-28T11:55:57.094Z,7.07
2018-11-28T11:56:57.082Z,7.11
2018-11-28T11:57:57.281Z,7.11
2018-11-28T11:58:57.265Z,7.05
2018-11-28T11:59:57.056Z,7.07
2018-11-28T12:00:57.063Z,7.05
2018-11-28T12:01:57.059Z,7.10
2018-11-28T12:02:57.052Z,7.11
2018-11-28T12:03:57.099Z,7.05
2018-11-28T12:04:57.046Z,7.13
2018-11-28T12:05:57.030Z,7.05
2018-11-28T12:06:57.039Z,7.14
2018-11-28T12:07:57.023Z,7.15
2018-11-28T12:08:57.092Z,7.15
2018-11-28T12:09:57.007Z,7.03
2018-11-28T12:10:57.005Z,7.17
2018-11-28T12:11:56.998Z,7.24
2018-11-28T12:12:56.995Z,7.20
2018-11-28T12:13:57.190Z,7.18
2018-11-28T12:14:56.986Z,7.18
2018-11-28T12:15:57.038Z,7.25
2018-11-28T12:16:56.977Z,7.25
2018-11-28T12:17:56.981Z,7.14
2018-11-28T12:18:56.979Z,7.17
2018-11-28T12:19:57.166Z,7.18
2018-11-28T12:20:56.956Z,7.20
2018-11-28T12:21:56.963Z,7.21
2018-11-28T12:22:56.962Z,7.25
2018-11-28T12:23:57.161Z,7.25
2018-11-28T12:24:56.942Z,7.23
2018-11-28T12:25:56.945Z,7.24
2018-11-28T12:26:56.940Z,7.28
2018-11-28T12:27:56.936Z,7.23
2018-11-28T12:28:56.934Z,7.23
2018-11-28T12:29:57.117Z,7.28
2018-11-28T12:30:56.915Z,7.18
2018-11-28T12:31:57.109Z,7.24
2018-11-28T12:32:56.903Z,7.28
2018-11-28T12:33:56.911Z,7.24
2018-11-28T12:34:56.907Z,7.32
2018-11-28T12:35:56.890Z,7.28
2018-11-28T12:36:56.895Z,7.36
2018-11-28T12:37:56.889Z,7.33
2018-11-28T12:38:56.875Z,7.39
2018-11-28T12:39:56.870Z,7.29
2018-11-28T12:40:56.867Z,7.39
2018-11-28T12:41:56.889Z,7.36
2018-11-28T12:42:56.871Z,7.36
2018-11-28T12:43:56.864Z,7.38
2018-11-28T12:44:56.850Z,7.38
2018-11-28T12:45:56.855Z,7.36
2018-11-28T12:46:56.856Z,7.40
2018-11-28T12:47:56.855Z,7.40
2018-11-28T12:48:56.864Z,7.39
2018-11-28T12:49:56.842Z,7.39
2018-11-28T12:50:56.847Z,7.39
2018-11-28T12:51:56.829Z,7.38
2018-11-28T12:52:56.828Z,7.40
2018-11-28T12:53:57.023Z,7.43
2018-11-28T12:54:56.803Z,7.43
2018-11-28T12:55:56.799Z,7.43
2018-11-28T12:56:56.811Z,7.43
2018-11-28T12:57:56.850Z,7.43
2018-11-28T12:58:56.802Z,7.48
2018-11-28T12:59:56.804Z,7.48
2018-11-28T13:00:56.980Z,7.50
2018-11-28T13:01:56.772Z,7.45
2018-11-28T13:02:56.785Z,7.50
2018-11-28T13:03:56.765Z,7.53
2018-11-28T13:04:59.846Z,7.47
2018-11-28T13:05:56.755Z,7.53
2018-11-28T13:06:56.763Z,7.48
2018-11-28T13:07:56.773Z,7.47
2018-11-28T13:08:56.746Z,7.50
2018-11-28T13:09:56.738Z,7.50
2018-11-28T13:10:56.735Z,7.48
2018-11-28T13:11:59.990Z,7.48
2018-11-28T13:12:56.735Z,7.50
2018-11-28T13:13:56.738Z,7.51
2018-11-28T13:14:56.714Z,7.56
2018-11-28T13:15:56.726Z,7.54
2018-11-28T13:16:56.722Z,7.56
2018-11-28T13:17:56.699Z,7.53
2018-11-28T13:18:56.696Z,7.51
2018-11-28T13:19:59.008Z,7.57